Hauptseite
METAR-TAF:

METAR-TAF

Flughäfen :

Militärflugplatz Évreux-Fauville

Évreux, Frankreich

Breite: 49-01N, Länge: 001-13E, Höhe: 141 m

Beobachtung

Neuester Wetterbericht von vor 13 Minuten, um 00:00 UTC
Wind 2 kt aus Nord/Nordwest
Temperatur 5°C
Luftfeuchtigkeit 93%
Luftdruck 1030 hPa
Sichtweite: 7000 m

METAR: LFOE 210000Z AUTO 34002KT 7000 NSC 05/04 Q1030 TEMPO 3000 BR

Zeit: 02:13 (00:13 UTC)

Prognose

Neuester Wetterbericht von vor 4 Stunden und 13 Minuten, um 20:00 UTC
Gültige Prognose vom 20 um 21 UTC bis 21 um 21 UTC
Wind 5 kt aus Nord/Nordost
Sichtweite 10 km oder mehr
keine Wolken unter 1500 m und keine Kumulonimbus oder Gewitterwolken
Zeitweise
vom 21 um 01 UTC bis 21 um 08 UTC
Sichtweite: 3000 m
feuchter Dunst
Wahrscheinlichkeit 40%
vom 21 um 04 UTC bis 21 um 08 UTC
Sichtweite: 0800 m
Nebel

TAF: LFOE 202000Z 2021/2121 02005KT CAVOK TEMPO 2101/2108 3000 BR PROB40 2104/2108 0800 FG VV///

Wetterbeobachtungen und Prognosen von mehr als 4000 Flughäfen (METAR und TAF Bericht).

Die verfügbaren Stationen werden durch gelbe und rote Markierungen auf der Karte dargestellt.

Führen Sie die Maus auf sie, um den Namen der Station zu sehen.

Darauf klicken, um die Beobachtung von Wetterbeobachtungen und Prognosen zu sehen.

Um die Karte zu ändern : klicken Sie auf den grünen Tasten mit einem schwarzen Kreuz Zum Vergrößern, auf den grünen Button mit einem Gedankenstrich zu verkleinern, oder auf die grünen Pfeile für benachbarte Karten.


METAR-TAF: